sensor_id;sensor_type;location;lat;lon;timestamp;pressure;altitude;pressure_sealevel;temperature;humidity
64404;BME280;50726;54.912;-8.392;2022-12-15T00:00:59;100788.50;;;26.03;34.14
64404;BME280;50726;54.912;-8.392;2022-12-15T00:03:43;100798.53;;;27.04;33.62
64404;BME280;50726;54.912;-8.392;2022-12-15T00:06:36;100787.88;;;28.59;32.04
64404;BME280;50726;54.912;-8.392;2022-12-15T00:09:50;100793.09;;;29.34;31.37
64404;BME280;50726;54.912;-8.392;2022-12-15T00:22:57;100775.38;;;29.32;30.07
64404;BME280;50726;54.912;-8.392;2022-12-15T01:22:50;100824.31;;;22.38;39.10
64404;BME280;50726;54.912;-8.392;2022-12-15T01:25:19;100815.66;;;24.20;35.95
64404;BME280;50726;54.912;-8.392;2022-12-15T01:27:45;100804.72;;;23.02;37.66
64404;BME280;50726;54.912;-8.392;2022-12-15T01:30:14;100798.25;;;22.93;37.46
64404;BME280;50726;54.912;-8.392;2022-12-15T01:32:40;100785.44;;;24.53;36.05
64404;BME280;50726;54.912;-8.392;2022-12-15T01:35:06;100786.69;;;26.97;33.33
64404;BME280;50726;54.912;-8.392;2022-12-15T01:37:33;100773.41;;;27.15;32.97
64404;BME280;50726;54.912;-8.392;2022-12-15T01:39:59;100775.16;;;26.34;32.35
64404;BME280;50726;54.912;-8.392;2022-12-15T01:42:44;100776.75;;;26.15;33.59
64404;BME280;50726;54.912;-8.392;2022-12-15T01:48:04;100758.50;;;27.99;31.68
64404;BME280;50726;54.912;-8.392;2022-12-15T01:50:32;100772.97;;;28.92;31.54
64404;BME280;50726;54.912;-8.392;2022-12-15T01:53:02;100750.41;;;29.58;30.37
64404;BME280;50726;54.912;-8.392;2022-12-15T01:55:43;100772.25;;;29.18;29.36
64404;BME280;50726;54.912;-8.392;2022-12-15T01:58:13;100761.00;;;27.43;30.69
64404;BME280;50726;54.912;-8.392;2022-12-15T02:00:42;100758.09;;;28.70;29.99
64404;BME280;50726;54.912;-8.392;2022-12-15T02:03:13;100770.44;;;28.35;31.20
64404;BME280;50726;54.912;-8.392;2022-12-15T02:05:47;100776.56;;;28.27;30.88
64404;BME280;50726;54.912;-8.392;2022-12-15T02:08:17;100781.34;;;27.66;31.07
64404;BME280;50726;54.912;-8.392;2022-12-15T02:11:10;100798.72;;;26.71;31.31
64404;BME280;50726;54.912;-8.392;2022-12-15T02:16:26;100806.81;;;23.10;36.27
64404;BME280;50726;54.912;-8.392;2022-12-15T02:25:05;100790.56;;;26.20;32.90
64404;BME280;50726;54.912;-8.392;2022-12-15T02:27:53;100777.94;;;25.80;33.64
64404;BME280;50726;54.912;-8.392;2022-12-15T02:33:19;100786.63;;;25.39;33.50
64404;BME280;50726;54.912;-8.392;2022-12-15T02:36:12;100782.44;;;25.79;33.26
64404;BME280;50726;54.912;-8.392;2022-12-15T02:38:40;100783.31;;;25.80;33.25
64404;BME280;50726;54.912;-8.392;2022-12-15T02:41:39;100793.56;;;26.89;32.10
64404;BME280;50726;54.912;-8.392;2022-12-15T02:47:16;100794.16;;;26.62;32.50
64404;BME280;50726;54.912;-8.392;2022-12-15T02:55:42;100799.72;;;27.41;31.28
64404;BME280;50726;54.912;-8.392;2022-12-15T03:03:52;100788.72;;;25.90;32.40
64404;BME280;50726;54.912;-8.392;2022-12-15T03:06:20;100773.59;;;25.02;33.06
64404;BME280;50726;54.912;-8.392;2022-12-15T03:08:50;100781.00;;;25.42;32.26
64404;BME280;50726;54.912;-8.392;2022-12-15T03:11:18;100780.69;;;25.68;32.49
64404;BME280;50726;54.912;-8.392;2022-12-15T03:13:53;100793.19;;;26.63;31.31
64404;BME280;50726;54.912;-8.392;2022-12-15T03:16:22;100781.44;;;26.23;31.57
64404;BME280;50726;54.912;-8.392;2022-12-15T03:18:48;100766.47;;;26.92;31.19
64404;BME280;50726;54.912;-8.392;2022-12-15T03:23:50;100792.00;;;28.25;30.28
64404;BME280;50726;54.912;-8.392;2022-12-15T03:26:15;100778.06;;;27.13;30.55
64404;BME280;50726;54.912;-8.392;2022-12-15T03:28:45;100789.03;;;28.28;29.99
64404;BME280;50726;54.912;-8.392;2022-12-15T03:31:16;100775.50;;;25.55;32.10
64404;BME280;50726;54.912;-8.392;2022-12-15T03:33:44;100792.03;;;25.28;33.37
64404;BME280;50726;54.912;-8.392;2022-12-15T03:36:10;100780.25;;;25.19;32.99
64404;BME280;50726;54.912;-8.392;2022-12-15T03:38:36;100788.56;;;26.85;31.73
64404;BME280;50726;54.912;-8.392;2022-12-15T03:41:02;100791.38;;;26.11;31.84
64404;BME280;50726;54.912;-8.392;2022-12-15T03:43:28;100802.19;;;25.45;32.11
64404;BME280;50726;54.912;-8.392;2022-12-15T03:45:53;100777.34;;;27.50;30.67
64404;BME280;50726;54.912;-8.392;2022-12-15T03:48:19;100793.00;;;29.08;29.36
64404;BME280;50726;54.912;-8.392;2022-12-15T03:50:46;100780.91;;;28.94;28.45
64404;BME280;50726;54.912;-8.392;2022-12-15T03:53:12;100800.56;;;27.71;29.74
64404;BME280;50726;54.912;-8.392;2022-12-15T03:55:38;100781.88;;;27.20;29.22
64404;BME280;50726;54.912;-8.392;2022-12-15T03:58:04;100790.22;;;26.66;30.58
64404;BME280;50726;54.912;-8.392;2022-12-15T04:00:29;100793.28;;;26.51;30.32
64404;BME280;50726;54.912;-8.392;2022-12-15T04:02:55;100794.47;;;26.68;31.05
64404;BME280;50726;54.912;-8.392;2022-12-15T04:05:23;100796.69;;;28.51;30.32
64404;BME280;50726;54.912;-8.392;2022-12-15T04:07:54;100796.91;;;27.72;30.43
64404;BME280;50726;54.912;-8.392;2022-12-15T04:10:21;100788.28;;;25.52;31.52
64404;BME280;50726;54.912;-8.392;2022-12-15T04:12:47;100805.22;;;24.17;33.78
64404;BME280;50726;54.912;-8.392;2022-12-15T04:15:13;100807.47;;;25.68;32.58
64404;BME280;50726;54.912;-8.392;2022-12-15T04:17:40;100803.28;;;26.49;30.99
64404;BME280;50726;54.912;-8.392;2022-12-15T04:20:06;100793.31;;;24.55;33.20
64404;BME280;50726;54.912;-8.392;2022-12-15T04:25:03;100794.16;;;25.45;31.57
64404;BME280;50726;54.912;-8.392;2022-12-15T04:27:48;100804.84;;;25.57;32.29
64404;BME280;50726;54.912;-8.392;2022-12-15T04:30:32;100795.28;;;25.31;32.05
64404;BME280;50726;54.912;-8.392;2022-12-15T04:33:17;100794.47;;;27.49;31.31
64404;BME280;50726;54.912;-8.392;2022-12-15T04:36:02;100793.22;;;28.40;30.62
64404;BME280;50726;54.912;-8.392;2022-12-15T04:38:47;100793.91;;;27.65;29.41
64404;BME280;50726;54.912;-8.392;2022-12-15T04:41:31;100802.31;;;28.30;30.00
64404;BME280;50726;54.912;-8.392;2022-12-15T04:44:16;100816.28;;;28.33;29.59
64404;BME280;50726;54.912;-8.392;2022-12-15T04:47:01;100809.84;;;24.26;33.31
64404;BME280;50726;54.912;-8.392;2022-12-15T04:49:45;100815.50;;;23.01;35.76
64404;BME280;50726;54.912;-8.392;2022-12-15T04:52:29;100822.91;;;20.67;40.51
64404;BME280;50726;54.912;-8.392;2022-12-15T04:55:13;100809.34;;;19.67;43.60
64404;BME280;50726;54.912;-8.392;2022-12-15T04:57:57;100855.34;;;19.19;43.94
64404;BME280;50726;54.912;-8.392;2022-12-15T05:00:41;100849.19;;;18.85;44.77
64404;BME280;50726;54.912;-8.392;2022-12-15T05:03:29;100856.91;;;19.70;44.64
64404;BME280;50726;54.912;-8.392;2022-12-15T05:06:13;100850.69;;;19.55;43.85
64404;BME280;50726;54.912;-8.392;2022-12-15T05:08:57;100846.22;;;21.20;41.61
64404;BME280;50726;54.912;-8.392;2022-12-15T05:11:41;100823.97;;;22.82;38.41
64404;BME280;50726;54.912;-8.392;2022-12-15T05:14:25;100796.88;;;26.31;34.38
64404;BME280;50726;54.912;-8.392;2022-12-15T05:17:10;100806.75;;;26.61;32.91
64404;BME280;50726;54.912;-8.392;2022-12-15T05:19:54;100806.78;;;25.55;33.88
64404;BME280;50726;54.912;-8.392;2022-12-15T05:22:38;100811.66;;;26.04;33.31
64404;BME280;50726;54.912;-8.392;2022-12-15T05:25:22;100788.41;;;25.17;33.35
64404;BME280;50726;54.912;-8.392;2022-12-15T05:28:06;100802.25;;;25.88;33.38
64404;BME280;50726;54.912;-8.392;2022-12-15T05:30:50;100792.59;;;24.87;34.22
64404;BME280;50726;54.912;-8.392;2022-12-15T05:33:35;100811.53;;;24.73;34.23
64404;BME280;50726;54.912;-8.392;2022-12-15T05:36:01;100819.69;;;23.90;35.19
64404;BME280;50726;54.912;-8.392;2022-12-15T05:38:30;100827.97;;;24.79;34.76
64404;BME280;50726;54.912;-8.392;2022-12-15T05:40:58;100824.06;;;23.79;35.93
64404;BME280;50726;54.912;-8.392;2022-12-15T05:43:28;100820.88;;;23.74;36.94
64404;BME280;50726;54.912;-8.392;2022-12-15T05:45:54;100823.97;;;23.56;37.85
64404;BME280;50726;54.912;-8.392;2022-12-15T05:48:20;100818.19;;;22.88;38.29
64404;BME280;50726;54.912;-8.392;2022-12-15T05:50:45;100819.59;;;24.38;35.85
64404;BME280;50726;54.912;-8.392;2022-12-15T05:53:11;100828.41;;;26.48;33.33
64404;BME280;50726;54.912;-8.392;2022-12-15T05:55:37;100819.16;;;26.10;33.82
64404;BME280;50726;54.912;-8.392;2022-12-15T05:58:03;100809.44;;;25.55;34.28
64404;BME280;50726;54.912;-8.392;2022-12-15T06:00:29;100821.69;;;23.26;37.28
64404;BME280;50726;54.912;-8.392;2022-12-15T06:02:54;100810.00;;;24.59;36.18
64404;BME280;50726;54.912;-8.392;2022-12-15T06:05:20;100807.38;;;23.64;36.20
64404;BME280;50726;54.912;-8.392;2022-12-15T06:07:46;100832.34;;;23.01;37.37
64404;BME280;50726;54.912;-8.392;2022-12-15T06:10:12;100816.31;;;23.99;36.62
64404;BME280;50726;54.912;-8.392;2022-12-15T06:12:37;100823.09;;;24.73;35.17
64404;BME280;50726;54.912;-8.392;2022-12-15T06:15:03;100817.66;;;26.38;33.23
64404;BME280;50726;54.912;-8.392;2022-12-15T06:17:29;100816.56;;;27.72;32.40
64404;BME280;50726;54.912;-8.392;2022-12-15T06:19:55;100817.94;;;26.76;32.74
64404;BME280;50726;54.912;-8.392;2022-12-15T06:22:21;100821.19;;;27.80;31.35
64404;BME280;50726;54.912;-8.392;2022-12-15T06:24:46;100805.53;;;28.43;31.28
64404;BME280;50726;54.912;-8.392;2022-12-15T06:27:12;100812.38;;;28.27;31.03
64404;BME280;50726;54.912;-8.392;2022-12-15T06:29:38;100804.50;;;27.96;30.93
64404;BME280;50726;54.912;-8.392;2022-12-15T06:32:04;100803.81;;;26.43;32.34
64404;BME280;50726;54.912;-8.392;2022-12-15T06:34:29;100809.47;;;26.19;32.57
64404;BME280;50726;54.912;-8.392;2022-12-15T06:36:55;100814.59;;;26.00;32.90
64404;BME280;50726;54.912;-8.392;2022-12-15T06:39:22;100817.03;;;26.25;32.89
64404;BME280;50726;54.912;-8.392;2022-12-15T06:41:55;100816.91;;;26.99;31.98
64404;BME280;50726;54.912;-8.392;2022-12-15T06:44:22;100826.28;;;27.34;32.09
64404;BME280;50726;54.912;-8.392;2022-12-15T06:47:01;100817.78;;;27.09;32.10
64404;BME280;50726;54.912;-8.392;2022-12-15T06:49:30;100836.09;;;23.96;36.26
64404;BME280;50726;54.912;-8.392;2022-12-15T06:51:59;100853.44;;;22.00;39.90
64404;BME280;50726;54.912;-8.392;2022-12-15T06:54:25;100871.03;;;20.48;42.12
64404;BME280;50726;54.912;-8.392;2022-12-15T06:56:51;100869.31;;;20.61;41.80
64404;BME280;50726;54.912;-8.392;2022-12-15T06:59:17;100858.72;;;23.30;38.59
64404;BME280;50726;54.912;-8.392;2022-12-15T07:01:42;100867.66;;;26.07;34.89
64404;BME280;50726;54.912;-8.392;2022-12-15T07:04:08;100873.56;;;25.01;35.01
64404;BME280;50726;54.912;-8.392;2022-12-15T07:06:36;100862.38;;;28.58;32.21
64404;BME280;50726;54.912;-8.392;2022-12-15T07:09:03;100854.31;;;30.05;30.88
64404;BME280;50726;54.912;-8.392;2022-12-15T07:11:31;100855.88;;;28.51;30.92
64404;BME280;50726;54.912;-8.392;2022-12-15T07:13:57;100859.91;;;28.27;31.16
64404;BME280;50726;54.912;-8.392;2022-12-15T07:16:24;100840.16;;;27.88;31.62
64404;BME280;50726;54.912;-8.392;2022-12-15T07:18:50;100861.06;;;28.24;31.21
64404;BME280;50726;54.912;-8.392;2022-12-15T07:21:16;100848.72;;;28.41;31.38
64404;BME280;50726;54.912;-8.392;2022-12-15T07:23:42;100864.94;;;26.71;32.22
64404;BME280;50726;54.912;-8.392;2022-12-15T07:26:09;100854.00;;;26.52;32.76
64404;BME280;50726;54.912;-8.392;2022-12-15T07:28:35;100873.06;;;27.41;33.45
64404;BME280;50726;54.912;-8.392;2022-12-15T07:31:06;100870.13;;;26.93;32.67
64404;BME280;50726;54.912;-8.392;2022-12-15T07:33:34;100867.31;;;27.66;32.64
64404;BME280;50726;54.912;-8.392;2022-12-15T07:36:01;100863.84;;;27.14;32.39
64404;BME280;50726;54.912;-8.392;2022-12-15T07:38:27;100853.50;;;25.18;34.80
64404;BME280;50726;54.912;-8.392;2022-12-15T07:40:59;100866.88;;;23.53;37.22
64404;BME280;50726;54.912;-8.392;2022-12-15T07:43:27;100843.53;;;25.09;35.54
64404;BME280;50726;54.912;-8.392;2022-12-15T07:45:54;100859.88;;;26.46;33.92
64404;BME280;50726;54.912;-8.392;2022-12-15T07:48:20;100863.31;;;26.58;33.44
64404;BME280;50726;54.912;-8.392;2022-12-15T07:50:46;100873.91;;;26.91;32.83
64404;BME280;50726;54.912;-8.392;2022-12-15T07:53:14;100884.16;;;29.03;31.33
64404;BME280;50726;54.912;-8.392;2022-12-15T07:55:43;100877.47;;;28.31;31.54
64404;BME280;50726;54.912;-8.392;2022-12-15T07:58:10;100859.53;;;29.62;30.21
64404;BME280;50726;54.912;-8.392;2022-12-15T08:00:36;100869.34;;;30.08;29.72
64404;BME280;50726;54.912;-8.392;2022-12-15T08:03:02;100862.19;;;28.22;30.83
64404;BME280;50726;54.912;-8.392;2022-12-15T08:05:34;100866.84;;;30.33;28.87
64404;BME280;50726;54.912;-8.392;2022-12-15T08:08:01;100875.94;;;30.93;28.40
64404;BME280;50726;54.912;-8.392;2022-12-15T08:10:41;100870.78;;;29.76;28.94
64404;BME280;50726;54.912;-8.392;2022-12-15T08:13:08;100865.44;;;28.73;29.89
64404;BME280;50726;54.912;-8.392;2022-12-15T08:15:39;100893.56;;;29.17;29.63
64404;BME280;50726;54.912;-8.392;2022-12-15T08:18:06;100885.31;;;29.46;29.21
64404;BME280;50726;54.912;-8.392;2022-12-15T08:20:38;100886.81;;;29.59;29.53
64404;BME280;50726;54.912;-8.392;2022-12-15T08:23:05;100884.19;;;28.55;29.71
64404;BME280;50726;54.912;-8.392;2022-12-15T08:25:31;100876.25;;;27.76;30.34
64404;BME280;50726;54.912;-8.392;2022-12-15T08:27:57;100880.13;;;28.89;29.70
64404;BME280;50726;54.912;-8.392;2022-12-15T08:30:23;100881.78;;;28.62;29.67
64404;BME280;50726;54.912;-8.392;2022-12-15T08:32:53;100876.91;;;30.04;28.92
64404;BME280;50726;54.912;-8.392;2022-12-15T08:35:18;100890.47;;;30.39;28.65
64404;BME280;50726;54.912;-8.392;2022-12-15T08:37:44;100883.28;;;29.30;29.28
64404;BME280;50726;54.912;-8.392;2022-12-15T08:40:10;100869.88;;;28.92;29.76
64404;BME280;50726;54.912;-8.392;2022-12-15T08:42:37;100876.72;;;29.79;28.98
64404;BME280;50726;54.912;-8.392;2022-12-15T08:45:07;100881.22;;;30.15;28.54
64404;BME280;50726;54.912;-8.392;2022-12-15T08:47:33;100874.38;;;29.30;29.06
64404;BME280;50726;54.912;-8.392;2022-12-15T08:49:59;100874.50;;;26.63;31.03
64404;BME280;50726;54.912;-8.392;2022-12-15T08:52:27;100885.06;;;26.55;31.49
64404;BME280;50726;54.912;-8.392;2022-12-15T08:54:53;100881.41;;;27.38;30.42
64404;BME280;50726;54.912;-8.392;2022-12-15T08:57:19;100888.34;;;26.37;31.93
64404;BME280;50726;54.912;-8.392;2022-12-15T08:59:45;100902.25;;;24.76;33.65
64404;BME280;50726;54.912;-8.392;2022-12-15T09:02:11;100906.25;;;25.27;34.04
64404;BME280;50726;54.912;-8.392;2022-12-15T09:04:37;100921.69;;;26.23;32.91
64404;BME280;50726;54.912;-8.392;2022-12-15T09:07:03;100920.84;;;26.44;32.64
64404;BME280;50726;54.912;-8.392;2022-12-15T09:09:29;100930.75;;;26.75;32.46
64404;BME280;50726;54.912;-8.392;2022-12-15T09:11:55;100925.28;;;28.37;30.87
64404;BME280;50726;54.912;-8.392;2022-12-15T09:14:23;100932.44;;;26.97;30.94
64404;BME280;50726;54.912;-8.392;2022-12-15T09:16:49;100941.75;;;25.52;32.85
64404;BME280;50726;54.912;-8.392;2022-12-15T09:19:18;100933.91;;;25.05;34.77
64404;BME280;50726;54.912;-8.392;2022-12-15T09:21:44;100947.75;;;26.54;32.44
64404;BME280;50726;54.912;-8.392;2022-12-15T09:24:12;100937.63;;;28.30;31.55
64404;BME280;50726;54.912;-8.392;2022-12-15T09:26:38;100939.44;;;28.20;30.88
64404;BME280;50726;54.912;-8.392;2022-12-15T09:29:10;100941.59;;;28.06;31.40
64404;BME280;50726;54.912;-8.392;2022-12-15T09:31:36;100947.09;;;27.75;31.32
64404;BME280;50726;54.912;-8.392;2022-12-15T09:34:02;100948.56;;;27.48;31.44
64404;BME280;50726;54.912;-8.392;2022-12-15T09:36:29;100967.94;;;26.58;32.99
64404;BME280;50726;54.912;-8.392;2022-12-15T09:38:57;100956.16;;;27.84;32.05
64404;BME280;50726;54.912;-8.392;2022-12-15T09:41:25;100970.88;;;26.55;32.74
64404;BME280;50726;54.912;-8.392;2022-12-15T09:44:03;100960.81;;;26.47;32.59
64404;BME280;50726;54.912;-8.392;2022-12-15T09:51:55;100947.34;;;26.37;33.39
64404;BME280;50726;54.912;-8.392;2022-12-15T09:54:24;100955.16;;;24.36;35.87
64404;BME280;50726;54.912;-8.392;2022-12-15T09:56:55;100963.81;;;27.38;32.40
64404;BME280;50726;54.912;-8.392;2022-12-15T09:59:37;100954.47;;;27.93;31.48
64404;BME280;50726;54.912;-8.392;2022-12-15T10:05:11;100968.94;;;29.27;30.17
64404;BME280;50726;54.912;-8.392;2022-12-15T10:07:43;100951.69;;;28.72;30.46
64404;BME280;50726;54.912;-8.392;2022-12-15T10:10:20;100953.03;;;28.18;31.24
64404;BME280;50726;54.912;-8.392;2022-12-15T10:12:50;100958.31;;;27.49;31.71
64404;BME280;50726;54.912;-8.392;2022-12-15T10:15:32;100974.66;;;30.42;29.81
64404;BME280;50726;54.912;-8.392;2022-12-15T10:20:35;100979.31;;;31.12;29.51
64404;BME280;50726;54.912;-8.392;2022-12-15T10:23:11;100978.94;;;32.51;28.29
64404;BME280;50726;54.912;-8.392;2022-12-15T10:25:45;100964.56;;;31.92;28.15
64404;BME280;50726;54.912;-8.392;2022-12-15T10:28:29;100969.28;;;31.98;27.95
64404;BME280;50726;54.912;-8.392;2022-12-15T10:31:12;100971.34;;;31.37;27.92
64404;BME280;50726;54.912;-8.392;2022-12-15T10:33:42;100968.09;;;30.45;28.58
64404;BME280;50726;54.912;-8.392;2022-12-15T10:39:16;100982.31;;;32.11;27.38
64404;BME280;50726;54.912;-8.392;2022-12-15T10:41:42;100971.50;;;31.35;28.18
64404;BME280;50726;54.912;-8.392;2022-12-15T10:44:30;100985.69;;;31.88;27.79
64404;BME280;50726;54.912;-8.392;2022-12-15T10:47:14;100966.09;;;31.43;28.38
64404;BME280;50726;54.912;-8.392;2022-12-15T10:49:42;100962.69;;;31.93;27.66
64404;BME280;50726;54.912;-8.392;2022-12-15T10:57:35;100970.91;;;32.83;27.11
64404;BME280;50726;54.912;-8.392;2022-12-15T11:00:32;100969.97;;;31.41;28.26
64404;BME280;50726;54.912;-8.392;2022-12-15T11:03:00;100964.75;;;30.25;28.97
64404;BME280;50726;54.912;-8.392;2022-12-15T11:05:32;100968.56;;;28.64;30.46
64404;BME280;50726;54.912;-8.392;2022-12-15T11:08:19;100966.41;;;32.08;27.58
64404;BME280;50726;54.912;-8.392;2022-12-15T11:10:55;100973.44;;;31.76;28.05
64404;BME280;50726;54.912;-8.392;2022-12-15T11:14:10;100980.28;;;33.83;26.80
64404;BME280;50726;54.912;-8.392;2022-12-15T11:16:52;100971.66;;;32.68;26.94
64404;BME280;50726;54.912;-8.392;2022-12-15T11:19:49;100998.09;;;31.56;28.39
64404;BME280;50726;54.912;-8.392;2022-12-15T11:32:40;100973.84;;;32.56;27.37
64404;BME280;50726;54.912;-8.392;2022-12-15T11:35:17;100982.47;;;31.33;27.83
64404;BME280;50726;54.912;-8.392;2022-12-15T11:38:00;100997.72;;;32.44;27.42
64404;BME280;50726;54.912;-8.392;2022-12-15T11:40:37;100988.97;;;33.47;27.28
64404;BME280;50726;54.912;-8.392;2022-12-15T11:49:26;100968.69;;;31.61;28.18
64404;BME280;50726;54.912;-8.392;2022-12-15T11:54:53;100970.69;;;31.51;28.07
64404;BME280;50726;54.912;-8.392;2022-12-15T12:00:24;100965.59;;;30.97;29.31
64404;BME280;50726;54.912;-8.392;2022-12-15T12:14:44;100976.28;;;30.35;29.85
64404;BME280;50726;54.912;-8.392;2022-12-15T12:17:25;100975.63;;;30.33;29.58
64404;BME280;50726;54.912;-8.392;2022-12-15T12:20:02;100977.03;;;26.13;33.70
64404;BME280;50726;54.912;-8.392;2022-12-15T12:22:47;100990.34;;;27.72;33.10
64404;BME280;50726;54.912;-8.392;2022-12-15T12:25:18;100988.13;;;30.42;30.69
64404;BME280;50726;54.912;-8.392;2022-12-15T12:30:24;100978.03;;;30.18;29.78
64404;BME280;50726;54.912;-8.392;2022-12-15T12:38:07;100962.00;;;28.76;30.54
64404;BME280;50726;54.912;-8.392;2022-12-15T12:43:07;100960.44;;;29.21;29.83
64404;BME280;50726;54.912;-8.392;2022-12-15T12:46:25;100976.06;;;29.74;29.41
64404;BME280;50726;54.912;-8.392;2022-12-15T12:49:02;100962.56;;;29.56;29.64
64404;BME280;50726;54.912;-8.392;2022-12-15T12:51:36;100955.31;;;28.43;30.86
64404;BME280;50726;54.912;-8.392;2022-12-15T13:00:13;100961.56;;;29.57;30.26
64404;BME280;50726;54.912;-8.392;2022-12-15T13:02:46;100944.09;;;29.61;30.13
64404;BME280;50726;54.912;-8.392;2022-12-15T13:05:34;100956.78;;;30.41;30.00
64404;BME280;50726;54.912;-8.392;2022-12-15T13:08:43;100954.03;;;28.27;31.48
64404;BME280;50726;54.912;-8.392;2022-12-15T13:14:41;100978.38;;;28.45;31.91
64404;BME280;50726;54.912;-8.392;2022-12-15T13:22:37;100952.13;;;30.25;30.18
64404;BME280;50726;54.912;-8.392;2022-12-15T13:25:36;100968.50;;;30.77;29.94
64404;BME280;50726;54.912;-8.392;2022-12-15T13:34:18;100942.41;;;33.12;27.72
64404;BME280;50726;54.912;-8.392;2022-12-15T13:37:40;100949.53;;;30.42;29.23
64404;BME280;50726;54.912;-8.392;2022-12-15T13:43:57;100954.97;;;30.24;30.17
64404;BME280;50726;54.912;-8.392;2022-12-15T13:46:35;100937.44;;;31.16;29.82
64404;BME280;50726;54.912;-8.392;2022-12-15T13:49:13;100929.19;;;32.27;28.63
64404;BME280;50726;54.912;-8.392;2022-12-15T13:51:42;100929.56;;;32.97;27.75
64404;BME280;50726;54.912;-8.392;2022-12-15T13:54:36;100946.44;;;32.59;27.94
64404;BME280;50726;54.912;-8.392;2022-12-15T13:57:18;100924.25;;;33.12;27.33
64404;BME280;50726;54.912;-8.392;2022-12-15T14:07:58;100950.13;;;32.75;27.93
64404;BME280;50726;54.912;-8.392;2022-12-15T14:13:18;100961.53;;;28.33;32.02
64404;BME280;50726;54.912;-8.392;2022-12-15T14:15:53;100952.28;;;31.38;29.28
64404;BME280;50726;54.912;-8.392;2022-12-15T14:18:29;100937.16;;;28.54;32.12
64404;BME280;50726;54.912;-8.392;2022-12-15T14:20:57;100935.69;;;27.42;33.28
64404;BME280;50726;54.912;-8.392;2022-12-15T14:23:25;100933.47;;;29.78;31.29
64404;BME280;50726;54.912;-8.392;2022-12-15T14:26:02;100942.38;;;30.33;30.35
64404;BME280;50726;54.912;-8.392;2022-12-15T14:28:33;100944.72;;;31.67;28.94
64404;BME280;50726;54.912;-8.392;2022-12-15T14:31:03;100942.38;;;32.38;28.58
64404;BME280;50726;54.912;-8.392;2022-12-15T14:33:32;100939.25;;;30.99;28.79
64404;BME280;50726;54.912;-8.392;2022-12-15T14:36:08;100941.00;;;30.81;29.10
64404;BME280;50726;54.912;-8.392;2022-12-15T14:38:53;100966.66;;;27.46;32.53
64404;BME280;50726;54.912;-8.392;2022-12-15T14:41:28;100944.28;;;30.67;30.83
64404;BME280;50726;54.912;-8.392;2022-12-15T14:44:23;100948.03;;;29.85;30.18
64404;BME280;50726;54.912;-8.392;2022-12-15T14:46:51;100947.59;;;31.57;29.09
64404;BME280;50726;54.912;-8.392;2022-12-15T14:49:24;100936.03;;;30.95;29.12
64404;BME280;50726;54.912;-8.392;2022-12-15T14:52:00;100936.75;;;30.71;29.30
64404;BME280;50726;54.912;-8.392;2022-12-15T14:54:36;100940.31;;;29.72;29.73
64404;BME280;50726;54.912;-8.392;2022-12-15T14:57:43;100931.78;;;29.77;29.44
64404;BME280;50726;54.912;-8.392;2022-12-15T15:22:01;100947.25;;;30.55;29.63
64404;BME280;50726;54.912;-8.392;2022-12-15T15:24:57;100928.59;;;30.36;28.97
64404;BME280;50726;54.912;-8.392;2022-12-15T15:28:11;100926.44;;;30.21;28.52
64404;BME280;50726;54.912;-8.392;2022-12-15T16:22:27;100939.56;;;31.30;27.15
64404;BME280;50726;54.912;-8.392;2022-12-15T16:24:53;100933.38;;;29.87;27.63
64404;BME280;50726;54.912;-8.392;2022-12-15T16:27:18;100946.09;;;29.31;28.75
64404;BME280;50726;54.912;-8.392;2022-12-15T16:29:49;100942.19;;;31.82;26.86
64404;BME280;50726;54.912;-8.392;2022-12-15T16:32:15;100951.63;;;29.29;29.02
64404;BME280;50726;54.912;-8.392;2022-12-15T16:34:41;100944.31;;;29.50;28.31
64404;BME280;50726;54.912;-8.392;2022-12-15T16:37:24;100945.28;;;31.27;27.03
64404;BME280;50726;54.912;-8.392;2022-12-15T16:39:49;100973.19;;;32.46;26.29
64404;BME280;50726;54.912;-8.392;2022-12-15T16:42:15;100949.53;;;32.06;26.29
64404;BME280;50726;54.912;-8.392;2022-12-15T16:44:41;100961.28;;;32.80;26.05
64404;BME280;50726;54.912;-8.392;2022-12-15T16:47:07;100973.09;;;31.54;26.50
64404;BME280;50726;54.912;-8.392;2022-12-15T16:49:33;100953.88;;;31.82;26.36
64404;BME280;50726;54.912;-8.392;2022-12-15T16:51:58;100947.47;;;32.08;26.46
64404;BME280;50726;54.912;-8.392;2022-12-15T16:54:26;100945.06;;;31.80;26.03
64404;BME280;50726;54.912;-8.392;2022-12-15T16:56:53;100948.84;;;30.93;26.61
64404;BME280;50726;54.912;-8.392;2022-12-15T16:59:23;100957.63;;;32.48;26.15
64404;BME280;50726;54.912;-8.392;2022-12-15T17:01:52;100955.94;;;30.05;28.01
64404;BME280;50726;54.912;-8.392;2022-12-15T17:04:18;100962.84;;;32.24;26.24
64404;BME280;50726;54.912;-8.392;2022-12-15T17:06:45;100942.44;;;32.95;25.93
64404;BME280;50726;54.912;-8.392;2022-12-15T17:09:17;100952.72;;;33.71;25.16
64404;BME280;50726;54.912;-8.392;2022-12-15T17:11:45;100971.84;;;33.46;25.86
64404;BME280;50726;54.912;-8.392;2022-12-15T17:14:11;100963.53;;;33.16;25.59
64404;BME280;50726;54.912;-8.392;2022-12-15T17:16:37;100955.09;;;33.11;25.52
64404;BME280;50726;54.912;-8.392;2022-12-15T17:19:03;100971.25;;;32.79;25.23
64404;BME280;50726;54.912;-8.392;2022-12-15T17:21:32;100963.19;;;31.88;26.47
64404;BME280;50726;54.912;-8.392;2022-12-15T17:24:03;100974.69;;;31.90;26.44
64404;BME280;50726;54.912;-8.392;2022-12-15T17:26:31;100955.44;;;31.33;27.07
64404;BME280;50726;54.912;-8.392;2022-12-15T17:29:01;100955.47;;;30.46;27.81
64404;BME280;50726;54.912;-8.392;2022-12-15T17:31:30;100980.00;;;30.16;26.87
64404;BME280;50726;54.912;-8.392;2022-12-15T17:33:56;100963.09;;;29.59;27.65
64404;BME280;50726;54.912;-8.392;2022-12-15T17:36:26;100974.06;;;30.12;27.06
64404;BME280;50726;54.912;-8.392;2022-12-15T17:38:59;100985.63;;;31.72;26.81
64404;BME280;50726;54.912;-8.392;2022-12-15T17:41:26;100976.06;;;30.73;26.51
64404;BME280;50726;54.912;-8.392;2022-12-15T17:43:53;100975.22;;;30.73;26.63